sensor_id;sensor_type;location;lat;lon;timestamp;P1;durP1;ratioP1;P2;durP2;ratioP2
46765;SDS011;32527;51.986;5.842;2022-08-19T00:01:09;9.45;;;7.43;;
46765;SDS011;32527;51.986;5.842;2022-08-19T00:03:35;10.70;;;7.22;;
46765;SDS011;32527;51.986;5.842;2022-08-19T00:06:01;10.88;;;7.50;;
46765;SDS011;32527;51.986;5.842;2022-08-19T00:08:27;11.88;;;8.10;;
46765;SDS011;32527;51.986;5.842;2022-08-19T00:10:53;12.35;;;8.70;;
46765;SDS011;32527;51.986;5.842;2022-08-19T00:13:18;10.70;;;7.40;;
46765;SDS011;32527;51.986;5.842;2022-08-19T00:15:44;10.07;;;7.03;;
46765;SDS011;32527;51.986;5.842;2022-08-19T00:18:10;10.38;;;7.25;;
46765;SDS011;32527;51.986;5.842;2022-08-19T00:20:36;10.18;;;7.43;;
46765;SDS011;32527;51.986;5.842;2022-08-19T00:23:05;10.82;;;7.72;;
46765;SDS011;32527;51.986;5.842;2022-08-19T00:25:32;9.32;;;7.38;;
46765;SDS011;32527;51.986;5.842;2022-08-19T00:27:58;9.20;;;7.47;;
46765;SDS011;32527;51.986;5.842;2022-08-19T00:30:24;9.60;;;7.75;;
46765;SDS011;32527;51.986;5.842;2022-08-19T00:32:52;12.50;;;8.20;;
46765;SDS011;32527;51.986;5.842;2022-08-19T00:35:20;12.77;;;8.50;;
46765;SDS011;32527;51.986;5.842;2022-08-19T00:37:47;10.32;;;8.23;;
46765;SDS011;32527;51.986;5.842;2022-08-19T00:40:13;11.50;;;9.18;;
46765;SDS011;32527;51.986;5.842;2022-08-19T00:42:40;12.75;;;9.40;;
46765;SDS011;32527;51.986;5.842;2022-08-19T00:45:11;10.55;;;8.60;;
46765;SDS011;32527;51.986;5.842;2022-08-19T00:47:42;16.15;;;10.63;;
46765;SDS011;32527;51.986;5.842;2022-08-19T00:50:09;11.52;;;9.07;;
46765;SDS011;32527;51.986;5.842;2022-08-19T00:52:38;11.07;;;9.57;;
46765;SDS011;32527;51.986;5.842;2022-08-19T00:55:10;11.77;;;9.88;;
46765;SDS011;32527;51.986;5.842;2022-08-19T00:57:41;14.65;;;10.57;;
46765;SDS011;32527;51.986;5.842;2022-08-19T01:00:11;13.93;;;10.88;;
46765;SDS011;32527;51.986;5.842;2022-08-19T01:02:41;14.43;;;10.50;;
46765;SDS011;32527;51.986;5.842;2022-08-19T01:05:08;16.40;;;12.40;;
46765;SDS011;32527;51.986;5.842;2022-08-19T01:07:39;13.52;;;10.10;;
46765;SDS011;32527;51.986;5.842;2022-08-19T01:10:07;16.75;;;12.07;;
46765;SDS011;32527;51.986;5.842;2022-08-19T01:12:35;13.25;;;10.48;;
46765;SDS011;32527;51.986;5.842;2022-08-19T01:15:02;14.68;;;11.30;;
46765;SDS011;32527;51.986;5.842;2022-08-19T01:17:29;16.77;;;11.02;;
46765;SDS011;32527;51.986;5.842;2022-08-19T01:19:55;17.83;;;11.45;;
46765;SDS011;32527;51.986;5.842;2022-08-19T01:24:49;14.70;;;11.63;;
46765;SDS011;32527;51.986;5.842;2022-08-19T01:27:16;15.18;;;10.70;;
46765;SDS011;32527;51.986;5.842;2022-08-19T01:29:43;14.57;;;11.30;;
46765;SDS011;32527;51.986;5.842;2022-08-19T01:32:11;14.45;;;11.73;;
46765;SDS011;32527;51.986;5.842;2022-08-19T01:34:40;14.90;;;10.77;;
46765;SDS011;32527;51.986;5.842;2022-08-19T01:37:10;15.05;;;11.50;;
46765;SDS011;32527;51.986;5.842;2022-08-19T01:39:37;13.68;;;10.98;;
46765;SDS011;32527;51.986;5.842;2022-08-19T01:42:05;13.48;;;10.77;;
46765;SDS011;32527;51.986;5.842;2022-08-19T01:44:35;15.40;;;11.25;;
46765;SDS011;32527;51.986;5.842;2022-08-19T01:47:01;13.95;;;11.32;;
46765;SDS011;32527;51.986;5.842;2022-08-19T01:49:29;17.85;;;11.77;;
46765;SDS011;32527;51.986;5.842;2022-08-19T01:51:55;16.00;;;11.98;;
46765;SDS011;32527;51.986;5.842;2022-08-19T01:54:21;16.77;;;13.35;;
46765;SDS011;32527;51.986;5.842;2022-08-19T01:56:48;18.35;;;12.13;;
46765;SDS011;32527;51.986;5.842;2022-08-19T01:59:17;17.10;;;12.15;;
46765;SDS011;32527;51.986;5.842;2022-08-19T02:01:45;15.50;;;12.27;;
46765;SDS011;32527;51.986;5.842;2022-08-19T02:04:11;19.30;;;13.50;;
46765;SDS011;32527;51.986;5.842;2022-08-19T02:06:36;14.88;;;12.30;;
46765;SDS011;32527;51.986;5.842;2022-08-19T02:09:03;17.92;;;13.25;;
46765;SDS011;32527;51.986;5.842;2022-08-19T02:11:34;17.30;;;12.68;;
46765;SDS011;32527;51.986;5.842;2022-08-19T02:14:03;18.13;;;13.27;;
46765;SDS011;32527;51.986;5.842;2022-08-19T02:16:31;18.83;;;14.30;;
46765;SDS011;32527;51.986;5.842;2022-08-19T02:18:57;18.20;;;13.68;;
46765;SDS011;32527;51.986;5.842;2022-08-19T02:21:27;15.50;;;12.55;;
46765;SDS011;32527;51.986;5.842;2022-08-19T02:23:53;16.63;;;13.20;;
46765;SDS011;32527;51.986;5.842;2022-08-19T02:26:20;15.65;;;12.07;;
46765;SDS011;32527;51.986;5.842;2022-08-19T02:28:46;15.48;;;11.55;;
46765;SDS011;32527;51.986;5.842;2022-08-19T02:31:17;18.23;;;12.82;;
46765;SDS011;32527;51.986;5.842;2022-08-19T02:33:45;18.13;;;13.07;;
46765;SDS011;32527;51.986;5.842;2022-08-19T02:36:11;14.70;;;12.02;;
46765;SDS011;32527;51.986;5.842;2022-08-19T02:38:39;15.90;;;12.65;;
46765;SDS011;32527;51.986;5.842;2022-08-19T02:41:14;16.30;;;12.88;;
46765;SDS011;32527;51.986;5.842;2022-08-19T02:43:42;16.42;;;12.88;;
46765;SDS011;32527;51.986;5.842;2022-08-19T02:46:12;16.95;;;12.68;;
46765;SDS011;32527;51.986;5.842;2022-08-19T02:48:46;14.75;;;12.63;;
46765;SDS011;32527;51.986;5.842;2022-08-19T02:51:17;19.48;;;13.07;;
46765;SDS011;32527;51.986;5.842;2022-08-19T02:53:47;16.13;;;11.88;;
46765;SDS011;32527;51.986;5.842;2022-08-19T02:56:13;17.58;;;12.23;;
46765;SDS011;32527;51.986;5.842;2022-08-19T02:58:39;17.45;;;12.90;;
46765;SDS011;32527;51.986;5.842;2022-08-19T03:01:05;14.70;;;11.98;;
46765;SDS011;32527;51.986;5.842;2022-08-19T03:03:31;16.98;;;13.48;;
46765;SDS011;32527;51.986;5.842;2022-08-19T03:06:13;20.35;;;12.80;;
46765;SDS011;32527;51.986;5.842;2022-08-19T03:08:41;17.37;;;13.07;;
46765;SDS011;32527;51.986;5.842;2022-08-19T03:11:16;15.55;;;12.27;;
46765;SDS011;32527;51.986;5.842;2022-08-19T03:13:50;19.60;;;13.88;;
46765;SDS011;32527;51.986;5.842;2022-08-19T03:16:17;17.13;;;13.52;;
46765;SDS011;32527;51.986;5.842;2022-08-19T03:18:43;20.23;;;15.00;;
46765;SDS011;32527;51.986;5.842;2022-08-19T03:21:09;18.10;;;14.13;;
46765;SDS011;32527;51.986;5.842;2022-08-19T03:23:44;16.52;;;13.30;;
46765;SDS011;32527;51.986;5.842;2022-08-19T03:26:10;17.65;;;13.88;;
46765;SDS011;32527;51.986;5.842;2022-08-19T03:28:35;24.10;;;15.15;;
46765;SDS011;32527;51.986;5.842;2022-08-19T03:31:03;20.02;;;13.77;;
46765;SDS011;32527;51.986;5.842;2022-08-19T03:33:32;18.92;;;13.70;;
46765;SDS011;32527;51.986;5.842;2022-08-19T03:36:08;19.60;;;14.00;;
46765;SDS011;32527;51.986;5.842;2022-08-19T03:38:40;21.13;;;14.07;;
46765;SDS011;32527;51.986;5.842;2022-08-19T03:41:09;19.13;;;13.10;;
46765;SDS011;32527;51.986;5.842;2022-08-19T03:43:38;21.00;;;14.57;;
46765;SDS011;32527;51.986;5.842;2022-08-19T03:46:06;17.88;;;13.57;;
46765;SDS011;32527;51.986;5.842;2022-08-19T03:48:36;21.05;;;14.57;;
46765;SDS011;32527;51.986;5.842;2022-08-19T03:51:03;19.63;;;15.43;;
46765;SDS011;32527;51.986;5.842;2022-08-19T03:53:29;18.67;;;13.45;;
46765;SDS011;32527;51.986;5.842;2022-08-19T03:55:56;18.92;;;13.60;;
46765;SDS011;32527;51.986;5.842;2022-08-19T03:58:25;19.90;;;14.35;;
46765;SDS011;32527;51.986;5.842;2022-08-19T04:00:53;21.48;;;14.70;;
46765;SDS011;32527;51.986;5.842;2022-08-19T04:03:20;20.02;;;13.82;;
46765;SDS011;32527;51.986;5.842;2022-08-19T04:05:46;19.02;;;13.63;;
46765;SDS011;32527;51.986;5.842;2022-08-19T04:08:13;19.90;;;14.55;;
46765;SDS011;32527;51.986;5.842;2022-08-19T04:10:44;21.15;;;14.55;;
46765;SDS011;32527;51.986;5.842;2022-08-19T04:13:09;20.45;;;14.77;;
46765;SDS011;32527;51.986;5.842;2022-08-19T04:15:38;19.60;;;16.02;;
46765;SDS011;32527;51.986;5.842;2022-08-19T04:18:06;21.55;;;15.05;;
46765;SDS011;32527;51.986;5.842;2022-08-19T04:20:38;22.38;;;16.70;;
46765;SDS011;32527;51.986;5.842;2022-08-19T04:23:05;22.08;;;15.50;;
46765;SDS011;32527;51.986;5.842;2022-08-19T04:25:35;21.92;;;17.75;;
46765;SDS011;32527;51.986;5.842;2022-08-19T04:28:02;23.52;;;16.45;;
46765;SDS011;32527;51.986;5.842;2022-08-19T04:30:28;23.15;;;16.73;;
46765;SDS011;32527;51.986;5.842;2022-08-19T04:32:53;23.38;;;17.42;;
46765;SDS011;32527;51.986;5.842;2022-08-19T04:35:19;27.20;;;19.70;;
46765;SDS011;32527;51.986;5.842;2022-08-19T04:37:45;25.25;;;18.42;;
46765;SDS011;32527;51.986;5.842;2022-08-19T04:40:10;26.23;;;17.73;;
46765;SDS011;32527;51.986;5.842;2022-08-19T04:42:55;25.42;;;17.98;;
46765;SDS011;32527;51.986;5.842;2022-08-19T04:45:21;26.95;;;19.13;;
46765;SDS011;32527;51.986;5.842;2022-08-19T04:47:47;29.02;;;18.27;;
46765;SDS011;32527;51.986;5.842;2022-08-19T04:50:13;25.63;;;17.88;;
46765;SDS011;32527;51.986;5.842;2022-08-19T04:52:39;22.50;;;17.08;;
46765;SDS011;32527;51.986;5.842;2022-08-19T04:55:11;25.35;;;18.15;;
46765;SDS011;32527;51.986;5.842;2022-08-19T04:57:37;27.65;;;18.25;;
46765;SDS011;32527;51.986;5.842;2022-08-19T05:00:05;23.73;;;17.52;;
46765;SDS011;32527;51.986;5.842;2022-08-19T05:02:32;23.75;;;16.83;;
46765;SDS011;32527;51.986;5.842;2022-08-19T05:04:58;24.58;;;17.67;;
46765;SDS011;32527;51.986;5.842;2022-08-19T05:07:26;25.50;;;16.75;;
46765;SDS011;32527;51.986;5.842;2022-08-19T05:09:52;24.15;;;19.13;;
46765;SDS011;32527;51.986;5.842;2022-08-19T05:12:18;25.40;;;17.95;;
46765;SDS011;32527;51.986;5.842;2022-08-19T05:14:44;28.35;;;18.00;;
46765;SDS011;32527;51.986;5.842;2022-08-19T05:17:12;27.08;;;16.73;;
46765;SDS011;32527;51.986;5.842;2022-08-19T05:19:38;23.70;;;17.77;;
46765;SDS011;32527;51.986;5.842;2022-08-19T05:22:22;25.05;;;17.13;;
46765;SDS011;32527;51.986;5.842;2022-08-19T05:25:01;25.17;;;17.55;;
46765;SDS011;32527;51.986;5.842;2022-08-19T05:27:31;23.58;;;17.55;;
46765;SDS011;32527;51.986;5.842;2022-08-19T05:29:58;27.38;;;19.20;;
46765;SDS011;32527;51.986;5.842;2022-08-19T05:32:24;27.60;;;19.23;;
46765;SDS011;32527;51.986;5.842;2022-08-19T05:34:49;29.15;;;19.63;;
46765;SDS011;32527;51.986;5.842;2022-08-19T05:37:15;29.67;;;20.95;;
46765;SDS011;32527;51.986;5.842;2022-08-19T05:39:42;25.30;;;18.70;;
46765;SDS011;32527;51.986;5.842;2022-08-19T05:42:09;28.95;;;18.73;;
46765;SDS011;32527;51.986;5.842;2022-08-19T05:44:38;33.03;;;21.83;;
46765;SDS011;32527;51.986;5.842;2022-08-19T05:47:08;31.23;;;21.17;;
46765;SDS011;32527;51.986;5.842;2022-08-19T05:49:34;36.13;;;25.13;;
46765;SDS011;32527;51.986;5.842;2022-08-19T05:52:03;39.00;;;23.95;;
46765;SDS011;32527;51.986;5.842;2022-08-19T05:54:30;36.83;;;24.73;;
46765;SDS011;32527;51.986;5.842;2022-08-19T05:56:56;34.20;;;24.13;;
46765;SDS011;32527;51.986;5.842;2022-08-19T05:59:22;38.30;;;26.05;;
46765;SDS011;32527;51.986;5.842;2022-08-19T06:01:48;45.17;;;28.23;;
46765;SDS011;32527;51.986;5.842;2022-08-19T06:04:16;37.83;;;25.88;;
46765;SDS011;32527;51.986;5.842;2022-08-19T06:06:44;33.75;;;24.45;;
46765;SDS011;32527;51.986;5.842;2022-08-19T06:09:11;28.73;;;21.52;;
46765;SDS011;32527;51.986;5.842;2022-08-19T06:11:54;30.70;;;21.73;;
46765;SDS011;32527;51.986;5.842;2022-08-19T06:14:24;26.70;;;20.23;;
46765;SDS011;32527;51.986;5.842;2022-08-19T06:16:52;24.67;;;19.90;;
46765;SDS011;32527;51.986;5.842;2022-08-19T06:19:19;26.27;;;20.55;;
46765;SDS011;32527;51.986;5.842;2022-08-19T06:21:47;28.30;;;19.83;;
46765;SDS011;32527;51.986;5.842;2022-08-19T06:24:15;23.77;;;18.52;;
46765;SDS011;32527;51.986;5.842;2022-08-19T06:26:44;21.00;;;17.25;;
46765;SDS011;32527;51.986;5.842;2022-08-19T06:29:12;24.10;;;19.13;;
46765;SDS011;32527;51.986;5.842;2022-08-19T06:31:41;25.73;;;19.10;;
46765;SDS011;32527;51.986;5.842;2022-08-19T06:34:08;26.73;;;18.58;;
46765;SDS011;32527;51.986;5.842;2022-08-19T06:36:41;24.10;;;17.98;;
46765;SDS011;32527;51.986;5.842;2022-08-19T06:39:11;23.25;;;17.65;;
46765;SDS011;32527;51.986;5.842;2022-08-19T06:41:39;25.58;;;18.10;;
46765;SDS011;32527;51.986;5.842;2022-08-19T06:44:13;27.25;;;20.55;;
46765;SDS011;32527;51.986;5.842;2022-08-19T06:46:40;33.15;;;21.27;;
46765;SDS011;32527;51.986;5.842;2022-08-19T06:49:07;31.73;;;21.02;;
46765;SDS011;32527;51.986;5.842;2022-08-19T06:51:42;39.10;;;24.27;;
46765;SDS011;32527;51.986;5.842;2022-08-19T06:54:10;42.50;;;27.10;;
46765;SDS011;32527;51.986;5.842;2022-08-19T06:56:36;46.67;;;27.55;;
46765;SDS011;32527;51.986;5.842;2022-08-19T06:59:03;55.50;;;30.90;;
46765;SDS011;32527;51.986;5.842;2022-08-19T07:01:42;53.60;;;30.40;;
46765;SDS011;32527;51.986;5.842;2022-08-19T07:04:12;63.67;;;35.08;;
46765;SDS011;32527;51.986;5.842;2022-08-19T07:06:40;68.75;;;36.33;;
46765;SDS011;32527;51.986;5.842;2022-08-19T07:09:08;68.60;;;36.47;;
46765;SDS011;32527;51.986;5.842;2022-08-19T07:11:35;67.28;;;35.20;;
46765;SDS011;32527;51.986;5.842;2022-08-19T07:14:01;68.20;;;36.85;;
46765;SDS011;32527;51.986;5.842;2022-08-19T07:16:27;79.28;;;41.60;;
46765;SDS011;32527;51.986;5.842;2022-08-19T07:18:53;78.85;;;43.53;;
46765;SDS011;32527;51.986;5.842;2022-08-19T07:21:20;76.88;;;42.25;;
46765;SDS011;32527;51.986;5.842;2022-08-19T07:23:49;74.63;;;42.75;;
46765;SDS011;32527;51.986;5.842;2022-08-19T07:26:16;74.03;;;42.25;;
46765;SDS011;32527;51.986;5.842;2022-08-19T07:28:45;65.55;;;38.75;;
46765;SDS011;32527;51.986;5.842;2022-08-19T07:31:17;74.88;;;42.92;;
46765;SDS011;32527;51.986;5.842;2022-08-19T07:33:45;72.32;;;43.33;;
46765;SDS011;32527;51.986;5.842;2022-08-19T07:36:12;79.97;;;45.30;;
46765;SDS011;32527;51.986;5.842;2022-08-19T07:38:40;76.15;;;43.47;;
46765;SDS011;32527;51.986;5.842;2022-08-19T07:41:09;70.25;;;41.03;;
46765;SDS011;32527;51.986;5.842;2022-08-19T07:43:37;75.72;;;44.22;;
46765;SDS011;32527;51.986;5.842;2022-08-19T07:46:02;80.15;;;47.35;;
46765;SDS011;32527;51.986;5.842;2022-08-19T07:48:28;69.97;;;43.15;;
46765;SDS011;32527;51.986;5.842;2022-08-19T07:50:55;75.57;;;45.97;;
46765;SDS011;32527;51.986;5.842;2022-08-19T07:53:27;68.43;;;43.47;;
46765;SDS011;32527;51.986;5.842;2022-08-19T07:55:54;74.72;;;48.50;;
46765;SDS011;32527;51.986;5.842;2022-08-19T07:58:20;75.18;;;44.47;;
46765;SDS011;32527;51.986;5.842;2022-08-19T08:00:47;73.15;;;46.00;;
46765;SDS011;32527;51.986;5.842;2022-08-19T08:03:16;59.17;;;40.10;;
46765;SDS011;32527;51.986;5.842;2022-08-19T08:05:43;64.13;;;43.15;;
46765;SDS011;32527;51.986;5.842;2022-08-19T08:08:28;64.43;;;41.38;;
46765;SDS011;32527;51.986;5.842;2022-08-19T08:11:13;56.53;;;39.20;;
46765;SDS011;32527;51.986;5.842;2022-08-19T08:13:40;55.25;;;39.05;;
46765;SDS011;32527;51.986;5.842;2022-08-19T08:16:06;50.55;;;36.53;;
46765;SDS011;32527;51.986;5.842;2022-08-19T08:18:32;57.13;;;40.78;;
46765;SDS011;32527;51.986;5.842;2022-08-19T08:21:06;54.97;;;39.22;;
46765;SDS011;32527;51.986;5.842;2022-08-19T08:23:32;52.78;;;38.15;;
46765;SDS011;32527;51.986;5.842;2022-08-19T08:25:58;47.67;;;34.03;;
46765;SDS011;32527;51.986;5.842;2022-08-19T08:28:24;48.47;;;35.47;;
46765;SDS011;32527;51.986;5.842;2022-08-19T08:30:52;47.90;;;34.30;;
46765;SDS011;32527;51.986;5.842;2022-08-19T08:33:19;39.58;;;31.05;;
46765;SDS011;32527;51.986;5.842;2022-08-19T08:35:48;44.40;;;33.83;;
46765;SDS011;32527;51.986;5.842;2022-08-19T08:38:14;43.88;;;33.10;;
46765;SDS011;32527;51.986;5.842;2022-08-19T08:40:48;48.63;;;34.30;;
46765;SDS011;32527;51.986;5.842;2022-08-19T08:43:29;46.33;;;33.10;;
46765;SDS011;32527;51.986;5.842;2022-08-19T08:51:43;38.53;;;28.73;;
46765;SDS011;32527;51.986;5.842;2022-08-19T08:54:13;37.88;;;27.95;;
46765;SDS011;32527;51.986;5.842;2022-08-19T08:56:42;34.33;;;24.80;;
46765;SDS011;32527;51.986;5.842;2022-08-19T08:59:14;37.13;;;26.58;;
46765;SDS011;32527;51.986;5.842;2022-08-19T09:01:42;37.17;;;27.10;;
46765;SDS011;32527;51.986;5.842;2022-08-19T09:04:08;34.78;;;25.52;;
46765;SDS011;32527;51.986;5.842;2022-08-19T09:06:38;38.83;;;26.08;;
46765;SDS011;32527;51.986;5.842;2022-08-19T09:17:23;35.40;;;26.52;;
46765;SDS011;32527;51.986;5.842;2022-08-19T09:20:08;35.10;;;23.70;;
46765;SDS011;32527;51.986;5.842;2022-08-19T09:22:42;34.05;;;24.35;;
46765;SDS011;32527;51.986;5.842;2022-08-19T09:25:09;36.03;;;25.35;;
46765;SDS011;32527;51.986;5.842;2022-08-19T09:27:37;36.03;;;26.70;;
46765;SDS011;32527;51.986;5.842;2022-08-19T09:30:05;37.15;;;27.13;;
46765;SDS011;32527;51.986;5.842;2022-08-19T09:32:32;36.97;;;26.88;;
46765;SDS011;32527;51.986;5.842;2022-08-19T09:34:58;37.30;;;27.10;;
46765;SDS011;32527;51.986;5.842;2022-08-19T09:37:25;36.90;;;25.27;;
46765;SDS011;32527;51.986;5.842;2022-08-19T09:39:51;38.15;;;24.38;;
46765;SDS011;32527;51.986;5.842;2022-08-19T09:42:17;34.25;;;22.55;;
46765;SDS011;32527;51.986;5.842;2022-08-19T09:44:43;30.48;;;21.60;;
46765;SDS011;32527;51.986;5.842;2022-08-19T09:47:11;34.00;;;24.42;;
46765;SDS011;32527;51.986;5.842;2022-08-19T09:49:38;35.28;;;24.25;;
46765;SDS011;32527;51.986;5.842;2022-08-19T09:52:04;35.65;;;22.92;;
46765;SDS011;32527;51.986;5.842;2022-08-19T09:54:33;28.10;;;19.73;;
46765;SDS011;32527;51.986;5.842;2022-08-19T09:56:59;24.60;;;18.10;;
46765;SDS011;32527;51.986;5.842;2022-08-19T09:59:26;33.42;;;22.73;;
46765;SDS011;32527;51.986;5.842;2022-08-19T10:01:52;30.63;;;21.70;;
46765;SDS011;32527;51.986;5.842;2022-08-19T10:04:18;34.70;;;22.60;;
46765;SDS011;32527;51.986;5.842;2022-08-19T10:06:46;34.38;;;21.70;;
46765;SDS011;32527;51.986;5.842;2022-08-19T10:09:13;31.33;;;22.40;;
46765;SDS011;32527;51.986;5.842;2022-08-19T10:11:41;30.98;;;21.10;;
46765;SDS011;32527;51.986;5.842;2022-08-19T10:14:08;29.08;;;17.98;;
46765;SDS011;32527;51.986;5.842;2022-08-19T10:16:35;29.88;;;18.33;;
46765;SDS011;32527;51.986;5.842;2022-08-19T10:19:01;27.80;;;20.67;;
46765;SDS011;32527;51.986;5.842;2022-08-19T10:21:30;27.92;;;20.75;;
46765;SDS011;32527;51.986;5.842;2022-08-19T10:23:58;24.23;;;16.33;;
46765;SDS011;32527;51.986;5.842;2022-08-19T10:26:26;32.53;;;21.30;;
46765;SDS011;32527;51.986;5.842;2022-08-19T10:28:53;28.17;;;17.98;;
46765;SDS011;32527;51.986;5.842;2022-08-19T10:31:27;24.58;;;17.02;;
46765;SDS011;32527;51.986;5.842;2022-08-19T10:33:54;25.60;;;17.90;;
46765;SDS011;32527;51.986;5.842;2022-08-19T10:36:23;33.05;;;18.42;;
46765;SDS011;32527;51.986;5.842;2022-08-19T10:38:51;31.85;;;20.73;;
46765;SDS011;32527;51.986;5.842;2022-08-19T10:41:19;31.38;;;20.55;;
46765;SDS011;32527;51.986;5.842;2022-08-19T10:43:47;28.45;;;19.63;;
46765;SDS011;32527;51.986;5.842;2022-08-19T10:46:17;30.02;;;19.10;;
46765;SDS011;32527;51.986;5.842;2022-08-19T10:48:43;30.20;;;20.25;;
46765;SDS011;32527;51.986;5.842;2022-08-19T10:51:10;30.05;;;19.35;;
46765;SDS011;32527;51.986;5.842;2022-08-19T10:53:55;31.73;;;20.42;;
46765;SDS011;32527;51.986;5.842;2022-08-19T10:56:23;26.20;;;18.63;;
46765;SDS011;32527;51.986;5.842;2022-08-19T10:59:07;30.75;;;19.95;;
46765;SDS011;32527;51.986;5.842;2022-08-19T11:01:34;25.95;;;18.48;;
46765;SDS011;32527;51.986;5.842;2022-08-19T11:04:01;23.98;;;15.60;;
46765;SDS011;32527;51.986;5.842;2022-08-19T11:06:28;23.48;;;16.38;;
46765;SDS011;32527;51.986;5.842;2022-08-19T11:08:55;25.60;;;18.30;;
46765;SDS011;32527;51.986;5.842;2022-08-19T11:11:21;22.83;;;17.00;;
46765;SDS011;32527;51.986;5.842;2022-08-19T11:13:48;25.63;;;15.88;;
46765;SDS011;32527;51.986;5.842;2022-08-19T11:16:25;23.15;;;15.65;;
46765;SDS011;32527;51.986;5.842;2022-08-19T11:18:53;23.30;;;15.20;;
46765;SDS011;32527;51.986;5.842;2022-08-19T11:21:28;26.38;;;16.58;;
46765;SDS011;32527;51.986;5.842;2022-08-19T11:23:58;31.33;;;19.35;;
46765;SDS011;32527;51.986;5.842;2022-08-19T11:26:27;20.50;;;14.70;;
46765;SDS011;32527;51.986;5.842;2022-08-19T11:28:54;22.73;;;14.88;;
46765;SDS011;32527;51.986;5.842;2022-08-19T11:31:21;21.38;;;14.13;;
46765;SDS011;32527;51.986;5.842;2022-08-19T11:33:49;22.42;;;14.18;;
46765;SDS011;32527;51.986;5.842;2022-08-19T11:36:20;24.95;;;15.63;;
46765;SDS011;32527;51.986;5.842;2022-08-19T11:38:47;20.40;;;15.35;;
46765;SDS011;32527;51.986;5.842;2022-08-19T11:41:14;22.77;;;14.27;;
46765;SDS011;32527;51.986;5.842;2022-08-19T11:43:42;18.98;;;13.07;;
46765;SDS011;32527;51.986;5.842;2022-08-19T11:46:09;17.80;;;12.70;;
46765;SDS011;32527;51.986;5.842;2022-08-19T11:48:36;17.60;;;12.95;;
46765;SDS011;32527;51.986;5.842;2022-08-19T11:51:03;22.58;;;15.07;;
46765;SDS011;32527;51.986;5.842;2022-08-19T11:53:34;18.50;;;14.20;;
46765;SDS011;32527;51.986;5.842;2022-08-19T11:56:00;20.25;;;14.07;;
46765;SDS011;32527;51.986;5.842;2022-08-19T11:58:26;24.98;;;15.90;;
46765;SDS011;32527;51.986;5.842;2022-08-19T12:00:52;21.30;;;15.02;;
46765;SDS011;32527;51.986;5.842;2022-08-19T12:03:18;20.58;;;15.10;;
46765;SDS011;32527;51.986;5.842;2022-08-19T12:05:44;21.42;;;14.40;;
46765;SDS011;32527;51.986;5.842;2022-08-19T12:08:10;21.88;;;14.45;;
46765;SDS011;32527;51.986;5.842;2022-08-19T12:10:37;24.88;;;15.30;;
46765;SDS011;32527;51.986;5.842;2022-08-19T12:13:04;20.98;;;15.43;;
46765;SDS011;32527;51.986;5.842;2022-08-19T12:15:35;22.35;;;15.52;;
46765;SDS011;32527;51.986;5.842;2022-08-19T12:18:06;22.70;;;17.23;;
46765;SDS011;32527;51.986;5.842;2022-08-19T12:20:34;23.23;;;16.73;;
46765;SDS011;32527;51.986;5.842;2022-08-19T12:23:01;25.08;;;19.50;;
46765;SDS011;32527;51.986;5.842;2022-08-19T12:25:27;23.10;;;16.23;;
46765;SDS011;32527;51.986;5.842;2022-08-19T12:27:53;23.70;;;16.77;;
46765;SDS011;32527;51.986;5.842;2022-08-19T12:30:19;27.45;;;18.92;;
46765;SDS011;32527;51.986;5.842;2022-08-19T12:32:45;25.17;;;17.55;;
46765;SDS011;32527;51.986;5.842;2022-08-19T12:35:11;27.60;;;18.73;;
46765;SDS011;32527;51.986;5.842;2022-08-19T12:37:37;28.10;;;18.25;;
46765;SDS011;32527;51.986;5.842;2022-08-19T12:40:03;25.92;;;18.65;;
46765;SDS011;32527;51.986;5.842;2022-08-19T12:42:30;25.48;;;19.65;;
46765;SDS011;32527;51.986;5.842;2022-08-19T12:44:55;25.83;;;17.23;;
46765;SDS011;32527;51.986;5.842;2022-08-19T12:47:21;30.02;;;18.42;;
46765;SDS011;32527;51.986;5.842;2022-08-19T12:49:47;25.20;;;18.58;;
46765;SDS011;32527;51.986;5.842;2022-08-19T12:52:14;30.83;;;18.55;;
46765;SDS011;32527;51.986;5.842;2022-08-19T12:54:41;23.20;;;17.70;;
46765;SDS011;32527;51.986;5.842;2022-08-19T12:57:08;25.45;;;17.60;;
46765;SDS011;32527;51.986;5.842;2022-08-19T12:59:35;24.63;;;19.20;;
46765;SDS011;32527;51.986;5.842;2022-08-19T13:02:02;33.88;;;23.30;;
46765;SDS011;32527;51.986;5.842;2022-08-19T13:04:30;28.80;;;20.02;;
46765;SDS011;32527;51.986;5.842;2022-08-19T13:06:57;24.13;;;17.95;;
46765;SDS011;32527;51.986;5.842;2022-08-19T13:09:23;22.25;;;15.85;;
46765;SDS011;32527;51.986;5.842;2022-08-19T13:11:49;21.85;;;17.15;;
46765;SDS011;32527;51.986;5.842;2022-08-19T13:14:14;21.45;;;16.23;;
46765;SDS011;32527;51.986;5.842;2022-08-19T13:16:40;29.02;;;19.65;;
46765;SDS011;32527;51.986;5.842;2022-08-19T13:19:06;26.38;;;19.77;;
46765;SDS011;32527;51.986;5.842;2022-08-19T13:21:32;21.77;;;14.90;;
46765;SDS011;32527;51.986;5.842;2022-08-19T13:23:57;20.98;;;14.85;;
46765;SDS011;32527;51.986;5.842;2022-08-19T13:26:23;20.80;;;15.15;;
46765;SDS011;32527;51.986;5.842;2022-08-19T13:28:49;25.50;;;18.15;;
46765;SDS011;32527;51.986;5.842;2022-08-19T13:31:34;22.40;;;15.48;;
46765;SDS011;32527;51.986;5.842;2022-08-19T13:34:40;19.98;;;15.70;;
46765;SDS011;32527;51.986;5.842;2022-08-19T13:37:06;25.75;;;14.88;;
46765;SDS011;32527;51.986;5.842;2022-08-19T13:39:32;28.77;;;16.80;;
46765;SDS011;32527;51.986;5.842;2022-08-19T13:41:59;24.80;;;14.95;;
46765;SDS011;32527;51.986;5.842;2022-08-19T13:44:26;21.98;;;15.30;;
46765;SDS011;32527;51.986;5.842;2022-08-19T13:46:54;16.48;;;12.70;;
46765;SDS011;32527;51.986;5.842;2022-08-19T13:49:27;16.98;;;14.00;;
46765;SDS011;32527;51.986;5.842;2022-08-19T13:51:55;18.50;;;13.05;;
46765;SDS011;32527;51.986;5.842;2022-08-19T13:57:44;18.77;;;15.52;;
46765;SDS011;32527;51.986;5.842;2022-08-19T14:00:15;22.00;;;15.35;;
46765;SDS011;32527;51.986;5.842;2022-08-19T14:02:50;21.05;;;16.05;;
46765;SDS011;32527;51.986;5.842;2022-08-19T14:05:33;22.33;;;17.08;;
46765;SDS011;32527;51.986;5.842;2022-08-19T14:08:00;23.38;;;17.50;;
46765;SDS011;32527;51.986;5.842;2022-08-19T14:10:30;29.33;;;16.63;;
46765;SDS011;32527;51.986;5.842;2022-08-19T14:13:04;24.98;;;18.08;;
46765;SDS011;32527;51.986;5.842;2022-08-19T14:15:34;23.50;;;17.08;;
46765;SDS011;32527;51.986;5.842;2022-08-19T14:18:03;23.48;;;17.20;;
46765;SDS011;32527;51.986;5.842;2022-08-19T14:26:32;25.70;;;16.25;;
46765;SDS011;32527;51.986;5.842;2022-08-19T14:28:57;25.88;;;16.77;;
46765;SDS011;32527;51.986;5.842;2022-08-19T14:31:23;24.00;;;15.70;;
46765;SDS011;32527;51.986;5.842;2022-08-19T14:33:49;25.60;;;17.25;;
46765;SDS011;32527;51.986;5.842;2022-08-19T14:36:16;26.48;;;18.08;;
46765;SDS011;32527;51.986;5.842;2022-08-19T14:38:42;28.42;;;17.92;;
46765;SDS011;32527;51.986;5.842;2022-08-19T14:43:36;24.75;;;15.98;;
46765;SDS011;32527;51.986;5.842;2022-08-19T14:46:01;29.33;;;17.02;;
46765;SDS011;32527;51.986;5.842;2022-08-19T14:48:27;19.80;;;13.48;;
46765;SDS011;32527;51.986;5.842;2022-08-19T14:50:53;19.13;;;11.63;;
46765;SDS011;32527;51.986;5.842;2022-08-19T14:53:18;14.65;;;10.80;;
46765;SDS011;32527;51.986;5.842;2022-08-19T14:55:44;14.85;;;9.52;;
46765;SDS011;32527;51.986;5.842;2022-08-19T14:58:11;11.63;;;7.88;;